Decoded Metar for KFSD (SIOUX FALLS in SD, USA) (IATA:FSD) | Meteo·Mobile Aviation Weather
aviador You're here:

KFSD Decoded Metar

SIOUX FALLS in SD, USA
Report Time2019-04-20 09:56:00
UTC Time2019-04-20 10:18:42
Flight Rules vfr VFR
Wind190° at 11 kt
W.Decomp.*RWY 21: 10.0 kt HW 4.6 kt LCW
RWY 15: 9.0 kt HW 6.3 kt RCW
RWY 27: 1.0 kt HW 11 kt LCW
Visibility9999 m
Phenomena:N/A
Clouds:N/A
Expected CloudBase > 4,000 ft AGL from Temp-Dew spread
CeilingNone
Temp10°C (ISA -2)
Dew Point00°C (50% RH)
AAT4.1°C
QNH1009 hPa
Density Alt1,398 ft
Elevation1,430 ft
Report Wrong Elevation
Raw Report
KFSD 200956Z 19011KT 10SM CLR 10/00 A2981 RMK AO2 SLP097
T01000000=

Extra information for KFSD:More info

Metar Taf Metar & Taf Last 4 Metars F.Rules Stats Wind Profile Meteogram Temp Stats Airport Information Weather charts Add Link Nearby VenuesMetar ALERT Operation Metar Decoded Social comments

AIRNAV info for KFSD